KIMT/IMT METAR and TAF weather

Enter ICAO airport designator
Station Type Date Time Source
KIMT METAR 2019/06/27 07:54 UTC NOAA

KIMT 270754Z AUTO 29004KT 10SM CLR 19/11 A3007 RMK AO2 SLP179 T01890111


Station Type Date Time Source
KIMT Decoded METAR 2019/06/27 07:54 UTC NOAA

IRON MOUNTAIN FORD AIRPORT, MI, United States (KIMT) 45-49N 88-07W 349M
Jun 27, 2019 - 03:54 AM EDT / 2019.06.27 0754 UTC
Wind: from the WNW (290 degrees) at 5 MPH (4 KT):0
Visibility: 10 mile(s):0
Sky conditions: clear
Temperature: 66.0 F (18.9 C)
Dew Point: 52.0 F (11.1 C)
Relative Humidity: 60%
Pressure (altimeter): 30.07 in. Hg (1018 hPa)
ob: KIMT 270754Z AUTO 29004KT 10SM CLR 19/11 A3007 RMK AO2 SLP179 T01890111
cycle: 8

Station Type Date Time Source
KIMT TAF UTC NOAA

Error!

Example: see airport list